sensor_id;sensor_type;location;lat;lon;timestamp;P1;durP1;ratioP1;P2;durP2;ratioP2
74614;SDS011;63121;51.458;-0.110;2023-04-30T00:01:18;20.35;;;9.57;;
74614;SDS011;63121;51.458;-0.110;2023-04-30T00:03:44;21.60;;;9.10;;
74614;SDS011;63121;51.458;-0.110;2023-04-30T00:06:09;20.07;;;9.63;;
74614;SDS011;63121;51.458;-0.110;2023-04-30T00:08:34;20.03;;;9.43;;
74614;SDS011;63121;51.458;-0.110;2023-04-30T00:11:00;17.77;;;8.65;;
74614;SDS011;63121;51.458;-0.110;2023-04-30T00:13:25;21.07;;;9.77;;
74614;SDS011;63121;51.458;-0.110;2023-04-30T00:15:50;20.50;;;10.20;;
74614;SDS011;63121;51.458;-0.110;2023-04-30T00:18:16;18.58;;;9.25;;
74614;SDS011;63121;51.458;-0.110;2023-04-30T00:20:41;20.27;;;9.70;;
74614;SDS011;63121;51.458;-0.110;2023-04-30T00:23:06;21.17;;;8.70;;
74614;SDS011;63121;51.458;-0.110;2023-04-30T00:25:32;17.63;;;8.82;;
74614;SDS011;63121;51.458;-0.110;2023-04-30T00:27:57;18.60;;;8.20;;
74614;SDS011;63121;51.458;-0.110;2023-04-30T00:30:23;21.35;;;9.43;;
74614;SDS011;63121;51.458;-0.110;2023-04-30T00:32:48;18.83;;;9.03;;
74614;SDS011;63121;51.458;-0.110;2023-04-30T00:35:13;19.57;;;9.13;;
74614;SDS011;63121;51.458;-0.110;2023-04-30T00:37:39;21.00;;;10.13;;
74614;SDS011;63121;51.458;-0.110;2023-04-30T00:40:04;19.85;;;9.90;;
74614;SDS011;63121;51.458;-0.110;2023-04-30T00:42:30;22.02;;;11.07;;
74614;SDS011;63121;51.458;-0.110;2023-04-30T00:44:56;22.45;;;10.73;;
74614;SDS011;63121;51.458;-0.110;2023-04-30T00:47:21;22.52;;;10.90;;
74614;SDS011;63121;51.458;-0.110;2023-04-30T00:49:46;23.45;;;10.30;;
74614;SDS011;63121;51.458;-0.110;2023-04-30T00:52:12;22.27;;;10.50;;
74614;SDS011;63121;51.458;-0.110;2023-04-30T00:54:38;24.65;;;10.02;;
74614;SDS011;63121;51.458;-0.110;2023-04-30T00:57:03;21.42;;;9.75;;
74614;SDS011;63121;51.458;-0.110;2023-04-30T00:59:30;24.48;;;10.75;;
74614;SDS011;63121;51.458;-0.110;2023-04-30T01:01:57;23.02;;;10.27;;
74614;SDS011;63121;51.458;-0.110;2023-04-30T01:04:22;24.20;;;10.48;;
74614;SDS011;63121;51.458;-0.110;2023-04-30T01:06:48;23.20;;;10.70;;
74614;SDS011;63121;51.458;-0.110;2023-04-30T01:09:13;22.60;;;10.55;;
74614;SDS011;63121;51.458;-0.110;2023-04-30T01:11:55;22.63;;;10.57;;
74614;SDS011;63121;51.458;-0.110;2023-04-30T01:17:27;25.00;;;11.80;;
74614;SDS011;63121;51.458;-0.110;2023-04-30T01:30:02;24.58;;;9.88;;
74614;SDS011;63121;51.458;-0.110;2023-04-30T01:32:28;24.98;;;11.77;;
74614;SDS011;63121;51.458;-0.110;2023-04-30T01:34:54;24.10;;;10.80;;
74614;SDS011;63121;51.458;-0.110;2023-04-30T01:42:29;22.30;;;10.73;;
74614;SDS011;63121;51.458;-0.110;2023-04-30T01:45:21;21.48;;;10.68;;
74614;SDS011;63121;51.458;-0.110;2023-04-30T01:50:51;21.75;;;10.05;;
74614;SDS011;63121;51.458;-0.110;2023-04-30T01:53:22;23.98;;;10.40;;
74614;SDS011;63121;51.458;-0.110;2023-04-30T01:55:58;24.70;;;11.15;;
74614;SDS011;63121;51.458;-0.110;2023-04-30T01:58:27;23.33;;;11.60;;
74614;SDS011;63121;51.458;-0.110;2023-04-30T02:00:54;26.73;;;11.38;;
74614;SDS011;63121;51.458;-0.110;2023-04-30T02:03:19;22.10;;;11.45;;
74614;SDS011;63121;51.458;-0.110;2023-04-30T02:05:45;25.08;;;10.93;;
74614;SDS011;63121;51.458;-0.110;2023-04-30T02:08:11;23.92;;;11.80;;
74614;SDS011;63121;51.458;-0.110;2023-04-30T02:10:37;23.23;;;11.23;;
74614;SDS011;63121;51.458;-0.110;2023-04-30T02:13:02;26.17;;;10.70;;
74614;SDS011;63121;51.458;-0.110;2023-04-30T02:15:27;24.42;;;10.52;;
74614;SDS011;63121;51.458;-0.110;2023-04-30T02:17:53;21.88;;;11.13;;
74614;SDS011;63121;51.458;-0.110;2023-04-30T02:20:18;22.92;;;10.75;;
74614;SDS011;63121;51.458;-0.110;2023-04-30T02:22:44;22.65;;;10.32;;
74614;SDS011;63121;51.458;-0.110;2023-04-30T02:25:09;22.92;;;10.90;;
74614;SDS011;63121;51.458;-0.110;2023-04-30T02:30:01;22.05;;;9.48;;
74614;SDS011;63121;51.458;-0.110;2023-04-30T02:32:28;21.55;;;10.35;;
74614;SDS011;63121;51.458;-0.110;2023-04-30T02:34:53;20.98;;;10.15;;
74614;SDS011;63121;51.458;-0.110;2023-04-30T02:37:19;22.20;;;10.68;;
74614;SDS011;63121;51.458;-0.110;2023-04-30T02:39:44;25.45;;;11.70;;
74614;SDS011;63121;51.458;-0.110;2023-04-30T02:42:10;24.90;;;12.18;;
74614;SDS011;63121;51.458;-0.110;2023-04-30T02:44:36;24.95;;;11.68;;
74614;SDS011;63121;51.458;-0.110;2023-04-30T02:47:01;28.35;;;12.43;;
74614;SDS011;63121;51.458;-0.110;2023-04-30T02:49:27;25.73;;;12.27;;
74614;SDS011;63121;51.458;-0.110;2023-04-30T02:51:53;28.80;;;12.88;;
74614;SDS011;63121;51.458;-0.110;2023-04-30T02:54:18;26.60;;;13.18;;
74614;SDS011;63121;51.458;-0.110;2023-04-30T02:56:44;24.75;;;12.32;;
74614;SDS011;63121;51.458;-0.110;2023-04-30T02:59:10;29.23;;;13.40;;
74614;SDS011;63121;51.458;-0.110;2023-04-30T03:01:35;28.65;;;13.48;;
74614;SDS011;63121;51.458;-0.110;2023-04-30T03:04:01;26.70;;;12.02;;
74614;SDS011;63121;51.458;-0.110;2023-04-30T03:06:29;24.50;;;11.45;;
74614;SDS011;63121;51.458;-0.110;2023-04-30T03:08:57;26.13;;;12.07;;
74614;SDS011;63121;51.458;-0.110;2023-04-30T03:11:23;28.95;;;12.40;;
74614;SDS011;63121;51.458;-0.110;2023-04-30T03:13:49;25.92;;;12.30;;
74614;SDS011;63121;51.458;-0.110;2023-04-30T03:16:20;27.83;;;12.77;;
74614;SDS011;63121;51.458;-0.110;2023-04-30T03:18:46;28.05;;;12.63;;
74614;SDS011;63121;51.458;-0.110;2023-04-30T03:21:12;29.42;;;12.15;;
74614;SDS011;63121;51.458;-0.110;2023-04-30T03:23:38;29.33;;;13.68;;
74614;SDS011;63121;51.458;-0.110;2023-04-30T03:26:03;33.17;;;13.40;;
74614;SDS011;63121;51.458;-0.110;2023-04-30T03:28:28;27.73;;;13.25;;
74614;SDS011;63121;51.458;-0.110;2023-04-30T03:30:54;27.83;;;13.13;;
74614;SDS011;63121;51.458;-0.110;2023-04-30T03:33:19;28.50;;;12.80;;
74614;SDS011;63121;51.458;-0.110;2023-04-30T03:35:45;28.90;;;14.43;;
74614;SDS011;63121;51.458;-0.110;2023-04-30T03:38:10;29.08;;;13.23;;
74614;SDS011;63121;51.458;-0.110;2023-04-30T03:40:36;27.03;;;13.47;;
74614;SDS011;63121;51.458;-0.110;2023-04-30T03:43:01;31.73;;;14.20;;
74614;SDS011;63121;51.458;-0.110;2023-04-30T03:45:26;36.17;;;14.23;;
74614;SDS011;63121;51.458;-0.110;2023-04-30T03:47:52;35.55;;;14.32;;
74614;SDS011;63121;51.458;-0.110;2023-04-30T03:50:17;29.20;;;13.82;;
74614;SDS011;63121;51.458;-0.110;2023-04-30T03:52:43;35.28;;;14.73;;
74614;SDS011;63121;51.458;-0.110;2023-04-30T03:55:09;30.52;;;13.43;;
74614;SDS011;63121;51.458;-0.110;2023-04-30T03:57:35;29.40;;;13.35;;
74614;SDS011;63121;51.458;-0.110;2023-04-30T04:00:02;30.30;;;14.05;;
74614;SDS011;63121;51.458;-0.110;2023-04-30T04:02:31;37.28;;;15.02;;
74614;SDS011;63121;51.458;-0.110;2023-04-30T04:04:57;29.08;;;13.95;;
74614;SDS011;63121;51.458;-0.110;2023-04-30T04:07:23;30.73;;;15.27;;
74614;SDS011;63121;51.458;-0.110;2023-04-30T04:09:48;31.88;;;14.05;;
74614;SDS011;63121;51.458;-0.110;2023-04-30T04:12:13;31.67;;;14.02;;
74614;SDS011;63121;51.458;-0.110;2023-04-30T04:14:39;28.98;;;13.43;;
74614;SDS011;63121;51.458;-0.110;2023-04-30T04:17:04;30.80;;;13.65;;
74614;SDS011;63121;51.458;-0.110;2023-04-30T04:19:30;31.90;;;13.73;;
74614;SDS011;63121;51.458;-0.110;2023-04-30T04:21:55;33.13;;;14.77;;
74614;SDS011;63121;51.458;-0.110;2023-04-30T04:24:23;36.40;;;14.57;;
74614;SDS011;63121;51.458;-0.110;2023-04-30T04:26:49;29.98;;;14.38;;
74614;SDS011;63121;51.458;-0.110;2023-04-30T04:29:14;30.00;;;13.40;;
74614;SDS011;63121;51.458;-0.110;2023-04-30T04:31:39;29.20;;;13.55;;
74614;SDS011;63121;51.458;-0.110;2023-04-30T04:34:06;31.27;;;14.48;;
74614;SDS011;63121;51.458;-0.110;2023-04-30T04:36:32;34.92;;;15.07;;
74614;SDS011;63121;51.458;-0.110;2023-04-30T04:38:58;31.90;;;15.07;;
74614;SDS011;63121;51.458;-0.110;2023-04-30T04:41:27;31.67;;;14.73;;
74614;SDS011;63121;51.458;-0.110;2023-04-30T04:43:53;30.55;;;15.10;;
74614;SDS011;63121;51.458;-0.110;2023-04-30T04:46:18;34.58;;;14.40;;
74614;SDS011;63121;51.458;-0.110;2023-04-30T04:48:44;31.60;;;14.43;;
74614;SDS011;63121;51.458;-0.110;2023-04-30T04:51:10;34.47;;;15.00;;
74614;SDS011;63121;51.458;-0.110;2023-04-30T04:53:36;31.92;;;14.63;;
74614;SDS011;63121;51.458;-0.110;2023-04-30T04:56:02;30.13;;;14.20;;
74614;SDS011;63121;51.458;-0.110;2023-04-30T04:58:27;31.55;;;14.25;;
74614;SDS011;63121;51.458;-0.110;2023-04-30T05:00:53;30.40;;;14.32;;
74614;SDS011;63121;51.458;-0.110;2023-04-30T05:03:19;29.80;;;13.75;;
74614;SDS011;63121;51.458;-0.110;2023-04-30T05:05:45;31.55;;;14.65;;
74614;SDS011;63121;51.458;-0.110;2023-04-30T05:08:10;34.20;;;14.55;;
74614;SDS011;63121;51.458;-0.110;2023-04-30T05:10:36;35.85;;;14.25;;
74614;SDS011;63121;51.458;-0.110;2023-04-30T05:13:01;31.73;;;13.97;;
74614;SDS011;63121;51.458;-0.110;2023-04-30T05:15:27;27.58;;;12.98;;
74614;SDS011;63121;51.458;-0.110;2023-04-30T05:17:52;30.02;;;14.18;;
74614;SDS011;63121;51.458;-0.110;2023-04-30T05:20:17;30.70;;;13.37;;
74614;SDS011;63121;51.458;-0.110;2023-04-30T05:22:43;29.37;;;13.50;;
74614;SDS011;63121;51.458;-0.110;2023-04-30T05:25:08;29.97;;;13.80;;
74614;SDS011;63121;51.458;-0.110;2023-04-30T05:27:34;31.75;;;13.63;;
74614;SDS011;63121;51.458;-0.110;2023-04-30T05:30:00;27.02;;;12.52;;
74614;SDS011;63121;51.458;-0.110;2023-04-30T05:32:25;31.52;;;13.60;;
74614;SDS011;63121;51.458;-0.110;2023-04-30T05:34:51;27.67;;;12.77;;
74614;SDS011;63121;51.458;-0.110;2023-04-30T05:37:17;29.08;;;12.95;;
74614;SDS011;63121;51.458;-0.110;2023-04-30T05:39:44;27.10;;;12.05;;
74614;SDS011;63121;51.458;-0.110;2023-04-30T05:42:09;26.52;;;11.82;;
74614;SDS011;63121;51.458;-0.110;2023-04-30T05:44:34;28.77;;;13.20;;
74614;SDS011;63121;51.458;-0.110;2023-04-30T05:47:00;31.02;;;11.98;;
74614;SDS011;63121;51.458;-0.110;2023-04-30T05:49:25;25.30;;;12.03;;
74614;SDS011;63121;51.458;-0.110;2023-04-30T05:51:51;27.27;;;12.30;;
74614;SDS011;63121;51.458;-0.110;2023-04-30T05:54:16;26.67;;;11.93;;
74614;SDS011;63121;51.458;-0.110;2023-04-30T05:56:42;28.70;;;11.18;;
74614;SDS011;63121;51.458;-0.110;2023-04-30T05:59:07;26.05;;;11.52;;
74614;SDS011;63121;51.458;-0.110;2023-04-30T06:01:32;21.73;;;11.07;;
74614;SDS011;63121;51.458;-0.110;2023-04-30T06:03:58;26.25;;;11.18;;
74614;SDS011;63121;51.458;-0.110;2023-04-30T06:06:25;23.02;;;10.65;;
74614;SDS011;63121;51.458;-0.110;2023-04-30T06:08:52;22.90;;;10.55;;
74614;SDS011;63121;51.458;-0.110;2023-04-30T06:11:17;21.33;;;10.55;;
74614;SDS011;63121;51.458;-0.110;2023-04-30T06:13:43;22.23;;;9.55;;
74614;SDS011;63121;51.458;-0.110;2023-04-30T06:16:11;24.15;;;10.13;;
74614;SDS011;63121;51.458;-0.110;2023-04-30T06:18:37;22.70;;;10.60;;
74614;SDS011;63121;51.458;-0.110;2023-04-30T06:21:02;22.93;;;10.47;;
74614;SDS011;63121;51.458;-0.110;2023-04-30T06:23:27;24.63;;;10.32;;
74614;SDS011;63121;51.458;-0.110;2023-04-30T06:25:53;19.67;;;10.10;;
74614;SDS011;63121;51.458;-0.110;2023-04-30T06:28:18;21.63;;;9.98;;
74614;SDS011;63121;51.458;-0.110;2023-04-30T06:30:43;22.67;;;10.97;;
74614;SDS011;63121;51.458;-0.110;2023-04-30T06:33:09;21.45;;;9.43;;
74614;SDS011;63121;51.458;-0.110;2023-04-30T06:35:35;25.92;;;10.68;;
74614;SDS011;63121;51.458;-0.110;2023-04-30T06:38:00;25.38;;;9.82;;
74614;SDS011;63121;51.458;-0.110;2023-04-30T06:40:25;23.83;;;10.70;;
74614;SDS011;63121;51.458;-0.110;2023-04-30T06:42:51;20.47;;;8.77;;
74614;SDS011;63121;51.458;-0.110;2023-04-30T06:45:16;23.20;;;9.13;;
74614;SDS011;63121;51.458;-0.110;2023-04-30T06:47:41;21.17;;;10.07;;
74614;SDS011;63121;51.458;-0.110;2023-04-30T06:50:07;26.23;;;10.07;;
74614;SDS011;63121;51.458;-0.110;2023-04-30T06:52:33;30.77;;;11.70;;
74614;SDS011;63121;51.458;-0.110;2023-04-30T06:54:58;22.95;;;10.63;;
74614;SDS011;63121;51.458;-0.110;2023-04-30T06:57:25;25.40;;;11.07;;
74614;SDS011;63121;51.458;-0.110;2023-04-30T06:59:51;22.80;;;10.77;;
74614;SDS011;63121;51.458;-0.110;2023-04-30T07:02:16;23.20;;;10.77;;
74614;SDS011;63121;51.458;-0.110;2023-04-30T07:04:42;26.33;;;10.95;;
74614;SDS011;63121;51.458;-0.110;2023-04-30T07:07:07;25.90;;;11.43;;
74614;SDS011;63121;51.458;-0.110;2023-04-30T07:09:32;21.63;;;11.43;;
74614;SDS011;63121;51.458;-0.110;2023-04-30T07:11:58;23.60;;;11.03;;
74614;SDS011;63121;51.458;-0.110;2023-04-30T07:14:23;27.47;;;13.17;;
74614;SDS011;63121;51.458;-0.110;2023-04-30T07:16:49;24.80;;;12.60;;
74614;SDS011;63121;51.458;-0.110;2023-04-30T07:19:15;26.73;;;12.57;;
74614;SDS011;63121;51.458;-0.110;2023-04-30T07:21:40;23.40;;;11.23;;
74614;SDS011;63121;51.458;-0.110;2023-04-30T07:24:05;23.67;;;11.77;;
74614;SDS011;63121;51.458;-0.110;2023-04-30T07:26:31;24.67;;;11.98;;
74614;SDS011;63121;51.458;-0.110;2023-04-30T07:28:56;29.52;;;12.30;;
74614;SDS011;63121;51.458;-0.110;2023-04-30T07:31:21;28.10;;;12.17;;
74614;SDS011;63121;51.458;-0.110;2023-04-30T07:33:47;28.40;;;13.13;;
74614;SDS011;63121;51.458;-0.110;2023-04-30T07:36:14;24.95;;;12.63;;
74614;SDS011;63121;51.458;-0.110;2023-04-30T07:38:40;26.35;;;12.93;;
74614;SDS011;63121;51.458;-0.110;2023-04-30T07:41:06;29.48;;;13.80;;
74614;SDS011;63121;51.458;-0.110;2023-04-30T07:43:32;26.88;;;12.57;;
74614;SDS011;63121;51.458;-0.110;2023-04-30T07:45:57;26.52;;;12.70;;
74614;SDS011;63121;51.458;-0.110;2023-04-30T07:48:23;26.08;;;12.48;;
74614;SDS011;63121;51.458;-0.110;2023-04-30T07:50:48;26.97;;;12.80;;
74614;SDS011;63121;51.458;-0.110;2023-04-30T07:53:14;28.30;;;12.88;;
74614;SDS011;63121;51.458;-0.110;2023-04-30T07:55:39;27.48;;;13.73;;
74614;SDS011;63121;51.458;-0.110;2023-04-30T07:58:05;26.10;;;12.40;;
74614;SDS011;63121;51.458;-0.110;2023-04-30T08:00:31;24.75;;;11.80;;
74614;SDS011;63121;51.458;-0.110;2023-04-30T08:02:57;26.30;;;13.20;;
74614;SDS011;63121;51.458;-0.110;2023-04-30T08:05:24;26.15;;;12.30;;
74614;SDS011;63121;51.458;-0.110;2023-04-30T08:07:52;26.08;;;12.20;;
74614;SDS011;63121;51.458;-0.110;2023-04-30T08:10:18;27.95;;;12.18;;
74614;SDS011;63121;51.458;-0.110;2023-04-30T08:12:43;27.63;;;12.85;;
74614;SDS011;63121;51.458;-0.110;2023-04-30T08:15:09;24.45;;;12.02;;
74614;SDS011;63121;51.458;-0.110;2023-04-30T08:17:35;26.85;;;12.50;;
74614;SDS011;63121;51.458;-0.110;2023-04-30T08:20:02;25.92;;;13.00;;
74614;SDS011;63121;51.458;-0.110;2023-04-30T08:22:29;26.65;;;13.07;;
74614;SDS011;63121;51.458;-0.110;2023-04-30T08:24:54;26.23;;;13.00;;
74614;SDS011;63121;51.458;-0.110;2023-04-30T08:27:20;24.35;;;12.05;;
74614;SDS011;63121;51.458;-0.110;2023-04-30T08:29:46;22.50;;;11.40;;
74614;SDS011;63121;51.458;-0.110;2023-04-30T08:32:11;20.55;;;9.90;;
74614;SDS011;63121;51.458;-0.110;2023-04-30T08:34:37;22.70;;;10.65;;
74614;SDS011;63121;51.458;-0.110;2023-04-30T08:37:04;22.50;;;10.93;;
74614;SDS011;63121;51.458;-0.110;2023-04-30T08:39:30;22.27;;;10.38;;
74614;SDS011;63121;51.458;-0.110;2023-04-30T08:41:55;21.63;;;10.33;;
74614;SDS011;63121;51.458;-0.110;2023-04-30T08:44:26;19.77;;;10.57;;
74614;SDS011;63121;51.458;-0.110;2023-04-30T08:46:52;20.02;;;10.40;;
74614;SDS011;63121;51.458;-0.110;2023-04-30T08:51:45;21.42;;;10.32;;
74614;SDS011;63121;51.458;-0.110;2023-04-30T08:54:11;20.25;;;9.52;;
74614;SDS011;63121;51.458;-0.110;2023-04-30T08:59:03;24.55;;;10.10;;
74614;SDS011;63121;51.458;-0.110;2023-04-30T09:01:29;21.83;;;9.50;;
74614;SDS011;63121;51.458;-0.110;2023-04-30T09:03:55;20.70;;;9.82;;
74614;SDS011;63121;51.458;-0.110;2023-04-30T09:06:20;17.77;;;8.80;;
74614;SDS011;63121;51.458;-0.110;2023-04-30T09:08:46;18.25;;;8.77;;
74614;SDS011;63121;51.458;-0.110;2023-04-30T09:11:23;19.95;;;9.10;;
74614;SDS011;63121;51.458;-0.110;2023-04-30T09:13:51;20.48;;;7.88;;
74614;SDS011;63121;51.458;-0.110;2023-04-30T09:16:22;17.92;;;8.35;;
74614;SDS011;63121;51.458;-0.110;2023-04-30T09:18:49;17.05;;;8.60;;
74614;SDS011;63121;51.458;-0.110;2023-04-30T09:21:15;16.38;;;7.30;;
74614;SDS011;63121;51.458;-0.110;2023-04-30T09:24:13;14.63;;;7.35;;
74614;SDS011;63121;51.458;-0.110;2023-04-30T09:26:35;16.75;;;7.70;;
74614;SDS011;63121;51.458;-0.110;2023-04-30T09:29:02;14.60;;;7.50;;
74614;SDS011;63121;51.458;-0.110;2023-04-30T09:31:35;15.60;;;7.72;;
74614;SDS011;63121;51.458;-0.110;2023-04-30T09:34:01;14.27;;;6.13;;
74614;SDS011;63121;51.458;-0.110;2023-04-30T09:36:27;14.95;;;6.50;;
74614;SDS011;63121;51.458;-0.110;2023-04-30T09:38:53;13.80;;;6.90;;
74614;SDS011;63121;51.458;-0.110;2023-04-30T09:41:23;13.57;;;5.75;;
74614;SDS011;63121;51.458;-0.110;2023-04-30T09:43:51;14.13;;;6.13;;
74614;SDS011;63121;51.458;-0.110;2023-04-30T09:46:20;12.95;;;5.25;;
74614;SDS011;63121;51.458;-0.110;2023-04-30T09:48:48;15.43;;;5.45;;
74614;SDS011;63121;51.458;-0.110;2023-04-30T09:51:21;10.38;;;4.65;;
74614;SDS011;63121;51.458;-0.110;2023-04-30T09:53:47;10.55;;;4.10;;
74614;SDS011;63121;51.458;-0.110;2023-04-30T09:56:14;9.93;;;4.47;;
74614;SDS011;63121;51.458;-0.110;2023-04-30T09:58:44;10.88;;;4.55;;
74614;SDS011;63121;51.458;-0.110;2023-04-30T10:01:14;14.27;;;5.80;;
74614;SDS011;63121;51.458;-0.110;2023-04-30T10:03:41;11.10;;;4.85;;
74614;SDS011;63121;51.458;-0.110;2023-04-30T10:06:07;12.93;;;5.47;;
74614;SDS011;63121;51.458;-0.110;2023-04-30T10:08:41;11.60;;;4.68;;
74614;SDS011;63121;51.458;-0.110;2023-04-30T10:11:08;11.55;;;4.43;;
74614;SDS011;63121;51.458;-0.110;2023-04-30T10:13:42;10.13;;;4.10;;
74614;SDS011;63121;51.458;-0.110;2023-04-30T10:16:19;11.88;;;5.15;;
74614;SDS011;63121;51.458;-0.110;2023-04-30T10:18:51;10.98;;;4.72;;
74614;SDS011;63121;51.458;-0.110;2023-04-30T10:21:19;10.10;;;4.82;;
74614;SDS011;63121;51.458;-0.110;2023-04-30T10:23:47;11.85;;;4.80;;
74614;SDS011;63121;51.458;-0.110;2023-04-30T10:26:13;12.57;;;5.78;;
74614;SDS011;63121;51.458;-0.110;2023-04-30T10:28:40;14.05;;;5.53;;
74614;SDS011;63121;51.458;-0.110;2023-04-30T10:31:06;12.90;;;5.78;;
74614;SDS011;63121;51.458;-0.110;2023-04-30T10:33:53;13.63;;;5.53;;
74614;SDS011;63121;51.458;-0.110;2023-04-30T10:36:28;11.93;;;5.53;;
74614;SDS011;63121;51.458;-0.110;2023-04-30T10:39:02;13.18;;;5.60;;
74614;SDS011;63121;51.458;-0.110;2023-04-30T10:41:29;11.82;;;6.10;;
74614;SDS011;63121;51.458;-0.110;2023-04-30T10:43:56;13.63;;;6.15;;
74614;SDS011;63121;51.458;-0.110;2023-04-30T10:46:24;15.23;;;6.55;;
74614;SDS011;63121;51.458;-0.110;2023-04-30T10:48:51;13.57;;;6.35;;
74614;SDS011;63121;51.458;-0.110;2023-04-30T10:51:18;11.95;;;5.78;;
74614;SDS011;63121;51.458;-0.110;2023-04-30T10:53:44;14.73;;;6.90;;
74614;SDS011;63121;51.458;-0.110;2023-04-30T10:56:12;13.50;;;6.00;;
74614;SDS011;63121;51.458;-0.110;2023-04-30T10:58:38;12.50;;;6.07;;
74614;SDS011;63121;51.458;-0.110;2023-04-30T11:01:08;12.95;;;6.50;;
74614;SDS011;63121;51.458;-0.110;2023-04-30T11:03:37;14.63;;;6.75;;
74614;SDS011;63121;51.458;-0.110;2023-04-30T11:06:15;15.48;;;6.85;;
74614;SDS011;63121;51.458;-0.110;2023-04-30T11:08:45;12.90;;;7.07;;
74614;SDS011;63121;51.458;-0.110;2023-04-30T11:11:17;12.65;;;6.65;;
74614;SDS011;63121;51.458;-0.110;2023-04-30T11:13:45;13.27;;;6.55;;
74614;SDS011;63121;51.458;-0.110;2023-04-30T11:16:14;17.48;;;7.60;;
74614;SDS011;63121;51.458;-0.110;2023-04-30T11:18:43;15.43;;;7.30;;
74614;SDS011;63121;51.458;-0.110;2023-04-30T11:21:10;16.05;;;7.25;;
74614;SDS011;63121;51.458;-0.110;2023-04-30T11:23:36;13.98;;;6.65;;
74614;SDS011;63121;51.458;-0.110;2023-04-30T11:26:06;14.88;;;7.00;;
74614;SDS011;63121;51.458;-0.110;2023-04-30T11:28:32;15.00;;;6.43;;
74614;SDS011;63121;51.458;-0.110;2023-04-30T11:30:59;12.80;;;6.30;;
74614;SDS011;63121;51.458;-0.110;2023-04-30T11:33:29;15.88;;;6.15;;
74614;SDS011;63121;51.458;-0.110;2023-04-30T11:35:56;12.02;;;6.28;;
74614;SDS011;63121;51.458;-0.110;2023-04-30T11:38:35;13.80;;;6.97;;
74614;SDS011;63121;51.458;-0.110;2023-04-30T11:41:01;14.20;;;6.40;;
74614;SDS011;63121;51.458;-0.110;2023-04-30T11:43:31;12.80;;;5.65;;
74614;SDS011;63121;51.458;-0.110;2023-04-30T11:48:32;10.75;;;5.00;;
74614;SDS011;63121;51.458;-0.110;2023-04-30T11:51:02;10.82;;;4.60;;
74614;SDS011;63121;51.458;-0.110;2023-04-30T11:53:49;11.15;;;5.28;;
74614;SDS011;63121;51.458;-0.110;2023-04-30T11:56:18;9.10;;;4.35;;
74614;SDS011;63121;51.458;-0.110;2023-04-30T11:58:45;11.00;;;4.95;;
74614;SDS011;63121;51.458;-0.110;2023-04-30T12:01:12;11.98;;;5.45;;
74614;SDS011;63121;51.458;-0.110;2023-04-30T12:03:43;12.90;;;4.88;;
74614;SDS011;63121;51.458;-0.110;2023-04-30T12:06:25;10.63;;;4.30;;
74614;SDS011;63121;51.458;-0.110;2023-04-30T12:08:53;10.93;;;4.40;;
74614;SDS011;63121;51.458;-0.110;2023-04-30T12:11:26;10.23;;;4.68;;
74614;SDS011;63121;51.458;-0.110;2023-04-30T12:13:54;10.65;;;4.72;;
74614;SDS011;63121;51.458;-0.110;2023-04-30T12:16:26;10.55;;;4.57;;
74614;SDS011;63121;51.458;-0.110;2023-04-30T12:18:52;11.18;;;4.70;;
74614;SDS011;63121;51.458;-0.110;2023-04-30T12:21:19;12.13;;;4.60;;
74614;SDS011;63121;51.458;-0.110;2023-04-30T12:23:46;11.23;;;5.43;;
74614;SDS011;63121;51.458;-0.110;2023-04-30T12:26:12;11.23;;;5.13;;
74614;SDS011;63121;51.458;-0.110;2023-04-30T12:28:37;8.90;;;4.00;;
74614;SDS011;63121;51.458;-0.110;2023-04-30T12:31:03;10.73;;;3.80;;
74614;SDS011;63121;51.458;-0.110;2023-04-30T12:33:29;10.52;;;4.38;;
74614;SDS011;63121;51.458;-0.110;2023-04-30T12:38:21;9.07;;;4.45;;
74614;SDS011;63121;51.458;-0.110;2023-04-30T12:40:47;13.50;;;5.10;;
74614;SDS011;63121;51.458;-0.110;2023-04-30T12:43:14;10.93;;;4.68;;
74614;SDS011;63121;51.458;-0.110;2023-04-30T12:45:50;12.23;;;4.25;;
74614;SDS011;63121;51.458;-0.110;2023-04-30T12:48:20;9.93;;;4.50;;
74614;SDS011;63121;51.458;-0.110;2023-04-30T12:50:49;9.30;;;4.10;;
74614;SDS011;63121;51.458;-0.110;2023-04-30T12:53:19;10.55;;;4.22;;
74614;SDS011;63121;51.458;-0.110;2023-04-30T12:58:29;9.95;;;3.70;;
74614;SDS011;63121;51.458;-0.110;2023-04-30T13:00:55;9.05;;;3.45;;
74614;SDS011;63121;51.458;-0.110;2023-04-30T13:03:22;9.18;;;3.35;;
74614;SDS011;63121;51.458;-0.110;2023-04-30T13:05:51;7.50;;;3.17;;
74614;SDS011;63121;51.458;-0.110;2023-04-30T13:08:17;8.52;;;3.72;;
74614;SDS011;63121;51.458;-0.110;2023-04-30T13:10:46;9.25;;;4.30;;
74614;SDS011;63121;51.458;-0.110;2023-04-30T13:13:13;10.73;;;4.43;;
74614;SDS011;63121;51.458;-0.110;2023-04-30T13:15:39;9.95;;;4.78;;
74614;SDS011;63121;51.458;-0.110;2023-04-30T13:18:06;11.35;;;4.18;;
74614;SDS011;63121;51.458;-0.110;2023-04-30T13:20:35;9.70;;;4.00;;
74614;SDS011;63121;51.458;-0.110;2023-04-30T13:23:00;9.20;;;3.55;;
74614;SDS011;63121;51.458;-0.110;2023-04-30T13:25:26;9.90;;;3.47;;
74614;SDS011;63121;51.458;-0.110;2023-04-30T13:27:51;8.88;;;3.65;;
74614;SDS011;63121;51.458;-0.110;2023-04-30T13:30:17;9.90;;;3.60;;
74614;SDS011;63121;51.458;-0.110;2023-04-30T13:32:42;10.32;;;4.50;;
74614;SDS011;63121;51.458;-0.110;2023-04-30T13:35:08;9.32;;;3.60;;
74614;SDS011;63121;51.458;-0.110;2023-04-30T13:40:00;8.63;;;3.10;;
74614;SDS011;63121;51.458;-0.110;2023-04-30T13:42:27;9.68;;;2.70;;
74614;SDS011;63121;51.458;-0.110;2023-04-30T13:44:53;7.47;;;2.35;;
74614;SDS011;63121;51.458;-0.110;2023-04-30T13:47:18;8.57;;;3.08;;
74614;SDS011;63121;51.458;-0.110;2023-04-30T13:52:10;7.85;;;2.60;;
74614;SDS011;63121;51.458;-0.110;2023-04-30T13:54:36;8.45;;;3.28;;
74614;SDS011;63121;51.458;-0.110;2023-04-30T13:57:02;7.35;;;2.83;;
74614;SDS011;63121;51.458;-0.110;2023-04-30T13:59:28;7.93;;;3.25;;
74614;SDS011;63121;51.458;-0.110;2023-04-30T14:01:54;9.02;;;3.40;;
74614;SDS011;63121;51.458;-0.110;2023-04-30T14:04:19;9.10;;;3.40;;
74614;SDS011;63121;51.458;-0.110;2023-04-30T14:06:44;7.72;;;2.92;;
74614;SDS011;63121;51.458;-0.110;2023-04-30T14:09:11;8.75;;;3.40;;
74614;SDS011;63121;51.458;-0.110;2023-04-30T14:11:37;9.50;;;3.23;;
74614;SDS011;63121;51.458;-0.110;2023-04-30T14:14:03;9.73;;;3.92;;
74614;SDS011;63121;51.458;-0.110;2023-04-30T14:16:29;8.98;;;3.22;;
74614;SDS011;63121;51.458;-0.110;2023-04-30T14:18:55;8.25;;;3.50;;
74614;SDS011;63121;51.458;-0.110;2023-04-30T14:21:21;8.88;;;3.90;;
74614;SDS011;63121;51.458;-0.110;2023-04-30T14:23:46;8.65;;;3.47;;
74614;SDS011;63121;51.458;-0.110;2023-04-30T14:26:11;7.95;;;3.42;;
74614;SDS011;63121;51.458;-0.110;2023-04-30T14:28:37;9.93;;;3.65;;
74614;SDS011;63121;51.458;-0.110;2023-04-30T14:31:02;9.05;;;3.40;;
74614;SDS011;63121;51.458;-0.110;2023-04-30T14:33:29;9.70;;;3.17;;
74614;SDS011;63121;51.458;-0.110;2023-04-30T14:35:56;8.65;;;3.53;;
74614;SDS011;63121;51.458;-0.110;2023-04-30T14:38:23;8.85;;;3.75;;
74614;SDS011;63121;51.458;-0.110;2023-04-30T14:40:49;8.90;;;3.35;;
74614;SDS011;63121;51.458;-0.110;2023-04-30T14:43:14;8.40;;;3.15;;
74614;SDS011;63121;51.458;-0.110;2023-04-30T14:45:40;8.82;;;3.15;;
74614;SDS011;63121;51.458;-0.110;2023-04-30T14:48:05;8.60;;;3.07;;
74614;SDS011;63121;51.458;-0.110;2023-04-30T14:50:31;8.80;;;3.30;;
74614;SDS011;63121;51.458;-0.110;2023-04-30T14:52:56;8.32;;;3.20;;
74614;SDS011;63121;51.458;-0.110;2023-04-30T14:55:21;7.63;;;3.10;;